Terminal Aerodrome Forecast
Issued by NWS North Platte, NE

Home | Current Version | Previous Version | Graphics & Text | Print | Product List | Glossary On
Versions: 1 2 3 4 5 6 7 8 9 10 11 12 13 14 15 16
000
FTUS43 KLBF 151100
TAFVTN
TAF
KVTN 151139Z 1512/1612 15013G19KT P6SM SKC
     FM151600 15020G28KT P6SM FEW050 SCT200
     FM152100 14018G25KT P6SM SCT050 BKN200
     FM160000 14015G23KT P6SM OVC050 PROB30 1603/1606 P6SM -SHRA
      OVC035
     FM160600 11007KT P6SM -SHRA SCT007 OVC015=

USA.gov is the U.S. government's official web portal to all federal, state and local government web resources and services.